Terminal Aerodrome Forecast
Issued by NWS

Home | Current Version | Previous Version | Text Only | Print | Product List | Glossary On
Versions: 1 2 3 4 5 6 7 8 9 10 11 12 13 14 15 16 17 18
000
FTUS46 KLOX 210200 AAA
TAFBUR
TAF AMD
KBUR 210254Z 2103/2124 18010KT P6SM SCT070
     FM210400 14004KT P6SM FEW070 SCT200
     FM211300 VRB03KT P6SM OVC016
     FM211600 13004KT P6SM FEW025
     FM212000 18008KT P6SM SKC=

USA.gov is the U.S. government's official web portal to all federal, state and local government web resources and services.